sensor_id;sensor_type;location;lat;lon;timestamp;pressure;altitude;pressure_sealevel;temperature;humidity
71306;BME280;59097;46.858;18.632;2022-07-29T00:01:37;100312.72;;;21.19;59.58
71306;BME280;59097;46.858;18.632;2022-07-29T00:04:05;100304.59;;;21.14;59.73
71306;BME280;59097;46.858;18.632;2022-07-29T00:06:33;100308.63;;;21.12;60.02
71306;BME280;59097;46.858;18.632;2022-07-29T00:09:01;100309.44;;;21.12;60.03
71306;BME280;59097;46.858;18.632;2022-07-29T00:11:29;100311.59;;;21.10;60.26
71306;BME280;59097;46.858;18.632;2022-07-29T00:13:57;100302.94;;;21.08;60.56
71306;BME280;59097;46.858;18.632;2022-07-29T00:16:25;100298.88;;;21.06;60.71
71306;BME280;59097;46.858;18.632;2022-07-29T00:18:53;100298.28;;;21.04;60.90
71306;BME280;59097;46.858;18.632;2022-07-29T00:21:21;100293.41;;;21.01;61.12
71306;BME280;59097;46.858;18.632;2022-07-29T00:23:49;100285.03;;;20.97;61.14
71306;BME280;59097;46.858;18.632;2022-07-29T00:26:17;100296.88;;;20.96;61.12
71306;BME280;59097;46.858;18.632;2022-07-29T00:28:45;100292.56;;;20.95;61.19
71306;BME280;59097;46.858;18.632;2022-07-29T00:31:14;100294.75;;;20.98;61.03
71306;BME280;59097;46.858;18.632;2022-07-29T00:33:43;100289.34;;;20.98;60.21
71306;BME280;59097;46.858;18.632;2022-07-29T00:36:11;100290.72;;;21.01;60.00
71306;BME280;59097;46.858;18.632;2022-07-29T00:38:38;100274.25;;;20.97;60.11
71306;BME280;59097;46.858;18.632;2022-07-29T00:41:09;100278.84;;;20.97;60.36
71306;BME280;59097;46.858;18.632;2022-07-29T00:43:37;100279.06;;;20.95;60.55
71306;BME280;59097;46.858;18.632;2022-07-29T00:46:05;100278.00;;;20.91;60.86
71306;BME280;59097;46.858;18.632;2022-07-29T00:48:33;100275.00;;;20.88;61.06
71306;BME280;59097;46.858;18.632;2022-07-29T00:51:03;100275.22;;;20.81;61.14
71306;BME280;59097;46.858;18.632;2022-07-29T00:53:32;100274.69;;;20.79;61.39
71306;BME280;59097;46.858;18.632;2022-07-29T00:56:00;100273.56;;;20.75;61.41
71306;BME280;59097;46.858;18.632;2022-07-29T00:58:28;100276.03;;;20.45;62.18
71306;BME280;59097;46.858;18.632;2022-07-29T01:00:57;100272.19;;;20.36;62.49
71306;BME280;59097;46.858;18.632;2022-07-29T01:03:26;100269.69;;;20.29;62.82
71306;BME280;59097;46.858;18.632;2022-07-29T01:05:54;100274.84;;;20.31;62.75
71306;BME280;59097;46.858;18.632;2022-07-29T01:08:23;100273.75;;;20.32;62.72
71306;BME280;59097;46.858;18.632;2022-07-29T01:10:51;100274.53;;;20.27;62.95
71306;BME280;59097;46.858;18.632;2022-07-29T01:13:21;100271.31;;;20.30;62.99
71306;BME280;59097;46.858;18.632;2022-07-29T01:15:55;100266.47;;;20.32;62.83
71306;BME280;59097;46.858;18.632;2022-07-29T01:18:32;100267.81;;;20.30;63.21
71306;BME280;59097;46.858;18.632;2022-07-29T01:21:40;100271.88;;;20.32;63.12
71306;BME280;59097;46.858;18.632;2022-07-29T01:30:06;100287.66;;;20.24;64.60
71306;BME280;59097;46.858;18.632;2022-07-29T01:32:38;100282.28;;;20.24;64.03
71306;BME280;59097;46.858;18.632;2022-07-29T01:37:57;100301.37;;;20.22;64.74
71306;BME280;59097;46.858;18.632;2022-07-29T01:40:36;100295.13;;;20.17;64.79
71306;BME280;59097;46.858;18.632;2022-07-29T01:43:17;100295.34;;;20.10;64.29
71306;BME280;59097;46.858;18.632;2022-07-29T01:46:01;100292.88;;;20.08;64.63
71306;BME280;59097;46.858;18.632;2022-07-29T01:48:59;100270.31;;;19.88;64.76
71306;BME280;59097;46.858;18.632;2022-07-29T01:54:25;100299.69;;;20.16;64.15
71306;BME280;59097;46.858;18.632;2022-07-29T01:56:56;100298.09;;;20.15;64.29
71306;BME280;59097;46.858;18.632;2022-07-29T01:59:26;100296.16;;;20.11;63.79
71306;BME280;59097;46.858;18.632;2022-07-29T02:01:58;100291.81;;;20.09;63.59
71306;BME280;59097;46.858;18.632;2022-07-29T02:04:28;100289.44;;;20.13;63.42
71306;BME280;59097;46.858;18.632;2022-07-29T02:07:01;100290.28;;;20.19;63.70
71306;BME280;59097;46.858;18.632;2022-07-29T02:09:33;100291.81;;;20.09;64.18
71306;BME280;59097;46.858;18.632;2022-07-29T02:12:03;100289.94;;;20.10;63.49
71306;BME280;59097;46.858;18.632;2022-07-29T02:14:35;100281.88;;;20.10;63.44
71306;BME280;59097;46.858;18.632;2022-07-29T02:17:04;100282.66;;;20.05;63.77
71306;BME280;59097;46.858;18.632;2022-07-29T02:19:33;100281.22;;;19.98;64.89
71306;BME280;59097;46.858;18.632;2022-07-29T02:22:01;100286.69;;;19.81;65.90
71306;BME280;59097;46.858;18.632;2022-07-29T02:24:30;100288.16;;;19.67;65.93
71306;BME280;59097;46.858;18.632;2022-07-29T02:26:59;100278.22;;;19.73;65.59
71306;BME280;59097;46.858;18.632;2022-07-29T02:29:30;100274.75;;;19.72;65.61
71306;BME280;59097;46.858;18.632;2022-07-29T02:32:00;100287.63;;;19.70;65.76
71306;BME280;59097;46.858;18.632;2022-07-29T02:34:30;100280.63;;;19.69;66.03
71306;BME280;59097;46.858;18.632;2022-07-29T02:37:02;100276.78;;;19.65;66.17
71306;BME280;59097;46.858;18.632;2022-07-29T02:39:32;100277.37;;;19.67;66.12
71306;BME280;59097;46.858;18.632;2022-07-29T02:42:05;100276.31;;;19.68;66.16
71306;BME280;59097;46.858;18.632;2022-07-29T02:44:34;100271.41;;;19.65;66.48
71306;BME280;59097;46.858;18.632;2022-07-29T02:47:20;100257.34;;;19.58;66.47
71306;BME280;59097;46.858;18.632;2022-07-29T02:53:07;100269.25;;;19.62;66.38
71306;BME280;59097;46.858;18.632;2022-07-29T02:55:45;100265.81;;;19.67;66.27
71306;BME280;59097;46.858;18.632;2022-07-29T02:58:22;100275.81;;;19.71;66.09
71306;BME280;59097;46.858;18.632;2022-07-29T03:01:02;100271.53;;;19.75;65.95
71306;BME280;59097;46.858;18.632;2022-07-29T03:03:36;100270.47;;;19.76;65.96
71306;BME280;59097;46.858;18.632;2022-07-29T03:06:05;100282.88;;;19.77;65.92
71306;BME280;59097;46.858;18.632;2022-07-29T03:08:55;100283.09;;;19.76;65.91
71306;BME280;59097;46.858;18.632;2022-07-29T03:11:24;100279.38;;;19.77;65.89
71306;BME280;59097;46.858;18.632;2022-07-29T03:14:13;100280.19;;;19.77;65.84
71306;BME280;59097;46.858;18.632;2022-07-29T03:16:42;100279.91;;;19.79;65.83
71306;BME280;59097;46.858;18.632;2022-07-29T03:19:10;100275.91;;;19.81;65.83
71306;BME280;59097;46.858;18.632;2022-07-29T03:21:39;100282.41;;;19.85;65.55
71306;BME280;59097;46.858;18.632;2022-07-29T03:24:07;100277.06;;;19.90;65.18
71306;BME280;59097;46.858;18.632;2022-07-29T03:26:39;100278.47;;;19.93;64.95
71306;BME280;59097;46.858;18.632;2022-07-29T03:29:07;100287.66;;;19.97;65.02
71306;BME280;59097;46.858;18.632;2022-07-29T03:31:40;100289.81;;;19.95;65.43
71306;BME280;59097;46.858;18.632;2022-07-29T03:34:10;100284.34;;;19.90;65.71
71306;BME280;59097;46.858;18.632;2022-07-29T03:36:38;100294.00;;;19.86;65.92
71306;BME280;59097;46.858;18.632;2022-07-29T03:39:09;100287.78;;;19.85;65.97
71306;BME280;59097;46.858;18.632;2022-07-29T03:41:38;100288.06;;;19.84;66.29
71306;BME280;59097;46.858;18.632;2022-07-29T03:44:07;100287.22;;;19.83;65.96
71306;BME280;59097;46.858;18.632;2022-07-29T03:46:36;100293.22;;;19.90;66.56
71306;BME280;59097;46.858;18.632;2022-07-29T03:49:07;100296.19;;;19.89;65.93
71306;BME280;59097;46.858;18.632;2022-07-29T03:51:36;100290.47;;;19.85;65.80
71306;BME280;59097;46.858;18.632;2022-07-29T03:54:05;100289.44;;;19.86;65.63
71306;BME280;59097;46.858;18.632;2022-07-29T03:56:43;100297.56;;;19.91;65.33
71306;BME280;59097;46.858;18.632;2022-07-29T03:59:16;100303.25;;;19.95;65.52
71306;BME280;59097;46.858;18.632;2022-07-29T04:01:48;100293.03;;;19.97;65.38
71306;BME280;59097;46.858;18.632;2022-07-29T04:04:17;100297.22;;;20.09;65.28
71306;BME280;59097;46.858;18.632;2022-07-29T04:06:46;100301.87;;;20.19;65.21
71306;BME280;59097;46.858;18.632;2022-07-29T04:09:14;100303.31;;;20.27;65.13
71306;BME280;59097;46.858;18.632;2022-07-29T04:11:43;100306.66;;;20.34;65.02
71306;BME280;59097;46.858;18.632;2022-07-29T04:14:31;100308.34;;;20.45;64.58
71306;BME280;59097;46.858;18.632;2022-07-29T04:17:01;100309.84;;;20.62;64.00
71306;BME280;59097;46.858;18.632;2022-07-29T04:19:30;100315.63;;;20.76;63.48
71306;BME280;59097;46.858;18.632;2022-07-29T04:21:59;100311.13;;;20.87;63.01
71306;BME280;59097;46.858;18.632;2022-07-29T04:24:28;100308.22;;;20.98;62.80
71306;BME280;59097;46.858;18.632;2022-07-29T04:26:55;100311.03;;;21.13;62.26
71306;BME280;59097;46.858;18.632;2022-07-29T04:29:23;100309.00;;;21.30;61.50
71306;BME280;59097;46.858;18.632;2022-07-29T04:31:52;100304.47;;;22.23;58.59
71306;BME280;59097;46.858;18.632;2022-07-29T04:34:20;100307.72;;;23.16;55.68
71306;BME280;59097;46.858;18.632;2022-07-29T04:36:48;100302.28;;;23.41;54.96
71306;BME280;59097;46.858;18.632;2022-07-29T04:39:16;100297.19;;;23.20;54.84
71306;BME280;59097;46.858;18.632;2022-07-29T04:41:50;100306.62;;;23.32;54.99
71306;BME280;59097;46.858;18.632;2022-07-29T04:44:21;100305.16;;;25.86;48.52
71306;BME280;59097;46.858;18.632;2022-07-29T04:46:56;100304.03;;;29.05;40.82
71306;BME280;59097;46.858;18.632;2022-07-29T04:49:25;100305.66;;;28.53;41.69
71306;BME280;59097;46.858;18.632;2022-07-29T04:51:53;100306.13;;;27.84;42.92
71306;BME280;59097;46.858;18.632;2022-07-29T04:54:21;100305.37;;;29.16;40.49
71306;BME280;59097;46.858;18.632;2022-07-29T04:56:50;100310.22;;;30.41;37.54
71306;BME280;59097;46.858;18.632;2022-07-29T04:59:18;100310.97;;;30.93;35.00
71306;BME280;59097;46.858;18.632;2022-07-29T05:01:46;100309.69;;;31.45;34.91
71306;BME280;59097;46.858;18.632;2022-07-29T05:04:14;100309.88;;;31.32;35.77
71306;BME280;59097;46.858;18.632;2022-07-29T05:06:43;100309.19;;;32.76;32.84
71306;BME280;59097;46.858;18.632;2022-07-29T05:09:11;100318.47;;;35.74;28.26
71306;BME280;59097;46.858;18.632;2022-07-29T05:11:39;100304.97;;;31.46;34.45
71306;BME280;59097;46.858;18.632;2022-07-29T05:14:07;100322.09;;;30.96;35.15
71306;BME280;59097;46.858;18.632;2022-07-29T09:02:35;100303.91;;;37.11;22.86
71306;BME280;59097;46.858;18.632;2022-07-29T09:05:08;100325.19;;;39.52;20.94
71306;BME280;59097;46.858;18.632;2022-07-29T09:07:38;100316.62;;;38.17;21.53
71306;BME280;59097;46.858;18.632;2022-07-29T09:10:08;100305.94;;;39.77;19.97
71306;BME280;59097;46.858;18.632;2022-07-29T09:12:37;100309.19;;;39.32;20.69
71306;BME280;59097;46.858;18.632;2022-07-29T09:15:06;100315.72;;;38.73;20.89
71306;BME280;59097;46.858;18.632;2022-07-29T09:17:46;100316.31;;;38.56;21.37
71306;BME280;59097;46.858;18.632;2022-07-29T09:20:19;100298.50;;;38.57;20.97
71306;BME280;59097;46.858;18.632;2022-07-29T09:22:49;100309.41;;;35.58;24.15
71306;BME280;59097;46.858;18.632;2022-07-29T09:25:35;100283.75;;;37.60;21.83
71306;BME280;59097;46.858;18.632;2022-07-29T09:28:16;100298.34;;;36.66;23.38
71306;BME280;59097;46.858;18.632;2022-07-29T09:30:53;100309.47;;;35.77;23.86
71306;BME280;59097;46.858;18.632;2022-07-29T09:33:24;100289.19;;;37.79;21.24
71306;BME280;59097;46.858;18.632;2022-07-29T09:36:05;100292.44;;;36.68;22.63
71306;BME280;59097;46.858;18.632;2022-07-29T09:38:35;100287.16;;;37.76;21.75
71306;BME280;59097;46.858;18.632;2022-07-29T09:41:05;100290.44;;;35.91;23.91
71306;BME280;59097;46.858;18.632;2022-07-29T09:43:36;100278.88;;;35.35;24.37
71306;BME280;59097;46.858;18.632;2022-07-29T09:46:15;100286.78;;;34.74;25.38
71306;BME280;59097;46.858;18.632;2022-07-29T09:48:43;100279.12;;;33.88;26.45
71306;BME280;59097;46.858;18.632;2022-07-29T09:51:19;100285.84;;;33.39;27.33
71306;BME280;59097;46.858;18.632;2022-07-29T09:53:55;100283.09;;;33.27;27.29
71306;BME280;59097;46.858;18.632;2022-07-29T09:56:41;100290.72;;;32.64;28.07
71306;BME280;59097;46.858;18.632;2022-07-29T09:59:12;100283.31;;;32.44;28.14
71306;BME280;59097;46.858;18.632;2022-07-29T10:01:41;100277.66;;;32.61;28.32
71306;BME280;59097;46.858;18.632;2022-07-29T10:04:11;100265.34;;;32.79;28.42
71306;BME280;59097;46.858;18.632;2022-07-29T10:07:05;100286.53;;;33.24;28.37
71306;BME280;59097;46.858;18.632;2022-07-29T10:09:39;100274.25;;;32.44;28.28
71306;BME280;59097;46.858;18.632;2022-07-29T10:12:12;100271.75;;;32.71;27.50
71306;BME280;59097;46.858;18.632;2022-07-29T10:14:45;100277.34;;;32.63;27.39
71306;BME280;59097;46.858;18.632;2022-07-29T10:17:14;100275.81;;;32.86;27.38
71306;BME280;59097;46.858;18.632;2022-07-29T10:19:43;100273.97;;;33.02;26.41
71306;BME280;59097;46.858;18.632;2022-07-29T10:22:12;100268.88;;;33.37;26.12
71306;BME280;59097;46.858;18.632;2022-07-29T10:24:41;100273.81;;;33.68;25.95
71306;BME280;59097;46.858;18.632;2022-07-29T10:27:09;100273.91;;;33.23;26.55
71306;BME280;59097;46.858;18.632;2022-07-29T10:29:37;100251.75;;;32.83;25.74
71306;BME280;59097;46.858;18.632;2022-07-29T10:40:57;100253.03;;;32.97;27.40
71306;BME280;59097;46.858;18.632;2022-07-29T10:43:48;100254.34;;;32.67;27.94
71306;BME280;59097;46.858;18.632;2022-07-29T10:46:22;100254.88;;;32.07;29.15
71306;BME280;59097;46.858;18.632;2022-07-29T10:54:46;100250.69;;;32.43;28.70
71306;BME280;59097;46.858;18.632;2022-07-29T10:57:28;100244.84;;;32.32;29.09
71306;BME280;59097;46.858;18.632;2022-07-29T11:00:29;100239.66;;;33.20;28.61
71306;BME280;59097;46.858;18.632;2022-07-29T11:02:59;100231.84;;;33.46;27.40
71306;BME280;59097;46.858;18.632;2022-07-29T11:05:51;100229.22;;;33.38;27.41
71306;BME280;59097;46.858;18.632;2022-07-29T11:08:24;100228.50;;;33.53;27.21
71306;BME280;59097;46.858;18.632;2022-07-29T11:13:50;100224.53;;;33.14;28.07
71306;BME280;59097;46.858;18.632;2022-07-29T11:16:20;100213.53;;;33.38;27.55
71306;BME280;59097;46.858;18.632;2022-07-29T11:19:19;100220.28;;;33.17;27.33
71306;BME280;59097;46.858;18.632;2022-07-29T11:21:57;100207.34;;;33.41;24.98
71306;BME280;59097;46.858;18.632;2022-07-29T11:24:29;100214.41;;;34.06;23.94
71306;BME280;59097;46.858;18.632;2022-07-29T11:27:11;100197.69;;;34.27;24.45
71306;BME280;59097;46.858;18.632;2022-07-29T11:29:49;100197.44;;;34.32;23.25
71306;BME280;59097;46.858;18.632;2022-07-29T11:32:23;100194.03;;;33.68;24.08
71306;BME280;59097;46.858;18.632;2022-07-29T11:35:19;100190.53;;;33.83;25.09
71306;BME280;59097;46.858;18.632;2022-07-29T11:38:25;100189.13;;;33.89;25.03
71306;BME280;59097;46.858;18.632;2022-07-29T11:41:23;100194.13;;;33.99;24.05
71306;BME280;59097;46.858;18.632;2022-07-29T11:43:55;100193.44;;;34.02;25.11
71306;BME280;59097;46.858;18.632;2022-07-29T11:46:46;100187.00;;;34.10;24.72
71306;BME280;59097;46.858;18.632;2022-07-29T11:49:25;100197.13;;;33.94;24.94
71306;BME280;59097;46.858;18.632;2022-07-29T11:52:00;100183.75;;;34.20;24.44
71306;BME280;59097;46.858;18.632;2022-07-29T11:54:51;100190.31;;;34.15;24.29
71306;BME280;59097;46.858;18.632;2022-07-29T11:57:28;100189.31;;;33.68;24.27
71306;BME280;59097;46.858;18.632;2022-07-29T12:00:07;100190.94;;;33.97;24.24
71306;BME280;59097;46.858;18.632;2022-07-29T12:02:43;100187.91;;;34.02;24.32
71306;BME280;59097;46.858;18.632;2022-07-29T12:05:16;100188.72;;;34.02;24.37
71306;BME280;59097;46.858;18.632;2022-07-29T12:08:16;100179.37;;;33.39;25.33
71306;BME280;59097;46.858;18.632;2022-07-29T12:10:51;100175.53;;;33.68;25.07
71306;BME280;59097;46.858;18.632;2022-07-29T12:13:20;100170.28;;;33.63;25.46
71306;BME280;59097;46.858;18.632;2022-07-29T12:15:56;100171.00;;;33.60;25.52
71306;BME280;59097;46.858;18.632;2022-07-29T12:18:27;100166.84;;;33.66;25.27
71306;BME280;59097;46.858;18.632;2022-07-29T12:21:01;100171.56;;;33.53;25.48
71306;BME280;59097;46.858;18.632;2022-07-29T12:23:33;100176.88;;;33.22;25.56
71306;BME280;59097;46.858;18.632;2022-07-29T12:26:07;100167.72;;;33.30;25.80
71306;BME280;59097;46.858;18.632;2022-07-29T12:28:52;100165.66;;;33.15;25.89
71306;BME280;59097;46.858;18.632;2022-07-29T12:31:23;100161.44;;;33.06;25.60
71306;BME280;59097;46.858;18.632;2022-07-29T12:34:15;100156.94;;;33.25;25.67
71306;BME280;59097;46.858;18.632;2022-07-29T12:36:44;100155.81;;;32.78;26.13
71306;BME280;59097;46.858;18.632;2022-07-29T12:39:12;100139.78;;;32.68;26.22
71306;BME280;59097;46.858;18.632;2022-07-29T12:41:43;100142.88;;;33.03;25.84
71306;BME280;59097;46.858;18.632;2022-07-29T12:44:12;100139.66;;;33.25;26.20
71306;BME280;59097;46.858;18.632;2022-07-29T12:46:40;100136.47;;;33.11;25.55
71306;BME280;59097;46.858;18.632;2022-07-29T12:49:08;100136.09;;;33.36;25.42
71306;BME280;59097;46.858;18.632;2022-07-29T12:51:39;100134.72;;;33.30;25.41
71306;BME280;59097;46.858;18.632;2022-07-29T12:54:14;100138.28;;;33.07;26.09
71306;BME280;59097;46.858;18.632;2022-07-29T12:56:44;100130.97;;;32.74;27.06
71306;BME280;59097;46.858;18.632;2022-07-29T12:59:13;100124.22;;;32.72;27.09
71306;BME280;59097;46.858;18.632;2022-07-29T13:01:44;100119.84;;;32.59;28.23
71306;BME280;59097;46.858;18.632;2022-07-29T13:04:24;100123.91;;;32.28;28.09
71306;BME280;59097;46.858;18.632;2022-07-29T13:07:04;100116.56;;;32.08;28.12
71306;BME280;59097;46.858;18.632;2022-07-29T13:12:07;100120.28;;;32.49;28.26
71306;BME280;59097;46.858;18.632;2022-07-29T13:14:44;100118.59;;;32.68;27.75
71306;BME280;59097;46.858;18.632;2022-07-29T13:17:22;100116.88;;;33.00;27.74
71306;BME280;59097;46.858;18.632;2022-07-29T13:20:04;100076.94;;;32.90;26.69
71306;BME280;59097;46.858;18.632;2022-07-29T13:22:35;100098.22;;;32.93;26.95
71306;BME280;59097;46.858;18.632;2022-07-29T13:25:04;100104.97;;;33.08;27.48
71306;BME280;59097;46.858;18.632;2022-07-29T13:27:37;100091.41;;;33.27;27.10
71306;BME280;59097;46.858;18.632;2022-07-29T13:30:08;100096.41;;;33.49;27.33
71306;BME280;59097;46.858;18.632;2022-07-29T13:32:36;100093.19;;;33.60;26.94
71306;BME280;59097;46.858;18.632;2022-07-29T13:35:07;100093.19;;;33.08;26.80
71306;BME280;59097;46.858;18.632;2022-07-29T13:37:36;100091.47;;;32.91;27.43
71306;BME280;59097;46.858;18.632;2022-07-29T13:40:10;100085.59;;;33.17;27.19
71306;BME280;59097;46.858;18.632;2022-07-29T13:42:38;100076.56;;;33.16;27.36
71306;BME280;59097;46.858;18.632;2022-07-29T13:45:07;100074.31;;;32.82;27.18
71306;BME280;59097;46.858;18.632;2022-07-29T13:47:36;100072.81;;;33.09;27.68
71306;BME280;59097;46.858;18.632;2022-07-29T13:50:06;100069.47;;;33.15;27.84
71306;BME280;59097;46.858;18.632;2022-07-29T13:52:34;100066.59;;;33.00;27.63
71306;BME280;59097;46.858;18.632;2022-07-29T13:55:03;100071.41;;;33.15;27.93
71306;BME280;59097;46.858;18.632;2022-07-29T13:57:32;100068.97;;;33.25;28.17
71306;BME280;59097;46.858;18.632;2022-07-29T14:00:00;100071.06;;;33.04;27.35
71306;BME280;59097;46.858;18.632;2022-07-29T14:02:34;100061.25;;;32.91;27.02
71306;BME280;59097;46.858;18.632;2022-07-29T14:05:03;100061.09;;;33.24;27.47
71306;BME280;59097;46.858;18.632;2022-07-29T14:07:36;100051.28;;;32.99;27.28
71306;BME280;59097;46.858;18.632;2022-07-29T14:10:05;100061.00;;;33.08;27.45
71306;BME280;59097;46.858;18.632;2022-07-29T14:12:33;100051.13;;;33.19;27.36
71306;BME280;59097;46.858;18.632;2022-07-29T14:15:02;100046.66;;;33.15;27.22
71306;BME280;59097;46.858;18.632;2022-07-29T14:17:30;100051.72;;;33.13;26.21
71306;BME280;59097;46.858;18.632;2022-07-29T14:19:59;100048.16;;;33.24;26.54
71306;BME280;59097;46.858;18.632;2022-07-29T14:22:27;100049.53;;;33.18;26.87
71306;BME280;59097;46.858;18.632;2022-07-29T14:24:55;100049.53;;;32.94;26.94
71306;BME280;59097;46.858;18.632;2022-07-29T14:27:23;100046.56;;;32.99;27.65
71306;BME280;59097;46.858;18.632;2022-07-29T14:30:05;100037.69;;;32.78;27.20
71306;BME280;59097;46.858;18.632;2022-07-29T14:32:34;100033.22;;;32.85;27.48
71306;BME280;59097;46.858;18.632;2022-07-29T14:35:02;100039.59;;;32.89;27.84
71306;BME280;59097;46.858;18.632;2022-07-29T14:37:30;100036.16;;;32.92;27.86
71306;BME280;59097;46.858;18.632;2022-07-29T14:40:08;100036.97;;;32.81;27.51
71306;BME280;59097;46.858;18.632;2022-07-29T14:42:37;100031.72;;;32.76;27.33
71306;BME280;59097;46.858;18.632;2022-07-29T14:45:07;100025.44;;;32.75;27.55
71306;BME280;59097;46.858;18.632;2022-07-29T14:47:36;100016.63;;;32.70;27.71
71306;BME280;59097;46.858;18.632;2022-07-29T14:50:05;100026.91;;;32.85;27.98
71306;BME280;59097;46.858;18.632;2022-07-29T14:52:35;100029.59;;;33.09;27.48
71306;BME280;59097;46.858;18.632;2022-07-29T14:55:03;100023.25;;;32.81;27.32
71306;BME280;59097;46.858;18.632;2022-07-29T14:57:43;100018.09;;;32.79;27.72
71306;BME280;59097;46.858;18.632;2022-07-29T15:00:11;100018.47;;;32.78;27.88
71306;BME280;59097;46.858;18.632;2022-07-29T15:02:39;100015.22;;;32.76;28.02
71306;BME280;59097;46.858;18.632;2022-07-29T15:05:27;100011.69;;;32.87;27.77
71306;BME280;59097;46.858;18.632;2022-07-29T15:07:55;100023.94;;;32.78;27.98
71306;BME280;59097;46.858;18.632;2022-07-29T15:10:24;100022.00;;;32.66;27.77
71306;BME280;59097;46.858;18.632;2022-07-29T15:12:54;100008.75;;;32.56;28.21
71306;BME280;59097;46.858;18.632;2022-07-29T15:15:23;100014.38;;;32.60;27.91
71306;BME280;59097;46.858;18.632;2022-07-29T15:17:51;100023.06;;;32.62;27.77
71306;BME280;59097;46.858;18.632;2022-07-29T15:20:19;100011.50;;;32.56;27.57
71306;BME280;59097;46.858;18.632;2022-07-29T15:22:47;100014.00;;;32.49;28.05
71306;BME280;59097;46.858;18.632;2022-07-29T15:25:15;100015.59;;;32.50;28.18
71306;BME280;59097;46.858;18.632;2022-07-29T15:27:43;100012.75;;;32.47;28.34
71306;BME280;59097;46.858;18.632;2022-07-29T15:30:19;100013.19;;;32.37;28.32
71306;BME280;59097;46.858;18.632;2022-07-29T15:33:03;100012.84;;;32.26;28.48
71306;BME280;59097;46.858;18.632;2022-07-29T15:35:32;100011.91;;;32.10;28.32
71306;BME280;59097;46.858;18.632;2022-07-29T15:38:07;100007.09;;;32.07;28.78
71306;BME280;59097;46.858;18.632;2022-07-29T15:40:37;99998.78;;;32.03;28.88
71306;BME280;59097;46.858;18.632;2022-07-29T15:43:06;99993.16;;;32.00;29.11
71306;BME280;59097;46.858;18.632;2022-07-29T15:45:39;99994.09;;;32.04;29.14
71306;BME280;59097;46.858;18.632;2022-07-29T15:48:08;99996.50;;;32.05;29.08
71306;BME280;59097;46.858;18.632;2022-07-29T15:50:41;99997.16;;;32.02;29.10
71306;BME280;59097;46.858;18.632;2022-07-29T15:53:13;99989.47;;;31.96;29.08
71306;BME280;59097;46.858;18.632;2022-07-29T15:55:42;99988.09;;;31.90;29.48
71306;BME280;59097;46.858;18.632;2022-07-29T15:58:11;99987.84;;;31.83;29.48
71306;BME280;59097;46.858;18.632;2022-07-29T16:00:39;99987.06;;;31.94;29.49
71306;BME280;59097;46.858;18.632;2022-07-29T16:03:07;99975.41;;;31.85;29.54
71306;BME280;59097;46.858;18.632;2022-07-29T16:05:35;99983.97;;;31.84;29.98
71306;BME280;59097;46.858;18.632;2022-07-29T16:08:04;99974.50;;;31.81;29.98
71306;BME280;59097;46.858;18.632;2022-07-29T16:10:32;99977.34;;;31.85;29.64
71306;BME280;59097;46.858;18.632;2022-07-29T16:13:00;99976.97;;;31.74;29.62
71306;BME280;59097;46.858;18.632;2022-07-29T16:15:28;99974.81;;;31.67;29.71
71306;BME280;59097;46.858;18.632;2022-07-29T16:17:57;99975.63;;;31.80;29.58
71306;BME280;59097;46.858;18.632;2022-07-29T16:20:25;99968.06;;;31.65;29.86
71306;BME280;59097;46.858;18.632;2022-07-29T16:22:53;99967.84;;;31.70;29.82
71306;BME280;59097;46.858;18.632;2022-07-29T16:25:22;99962.00;;;31.59;30.08
71306;BME280;59097;46.858;18.632;2022-07-29T16:28:10;99956.81;;;31.46;30.41
71306;BME280;59097;46.858;18.632;2022-07-29T16:30:38;99963.81;;;31.55;30.06
71306;BME280;59097;46.858;18.632;2022-07-29T16:33:06;99963.50;;;31.36;30.59
71306;BME280;59097;46.858;18.632;2022-07-29T16:35:35;99965.19;;;31.29;30.85
71306;BME280;59097;46.858;18.632;2022-07-29T16:38:07;99964.38;;;31.28;30.99
71306;BME280;59097;46.858;18.632;2022-07-29T16:40:35;99962.69;;;31.36;31.12
71306;BME280;59097;46.858;18.632;2022-07-29T16:43:03;99954.94;;;31.38;31.16
71306;BME280;59097;46.858;18.632;2022-07-29T16:45:34;99962.69;;;31.36;31.37
71306;BME280;59097;46.858;18.632;2022-07-29T16:48:13;99955.13;;;31.33;31.26
71306;BME280;59097;46.858;18.632;2022-07-29T16:50:45;99951.44;;;31.17;31.71
71306;BME280;59097;46.858;18.632;2022-07-29T16:53:13;99945.13;;;31.04;31.91
71306;BME280;59097;46.858;18.632;2022-07-29T16:55:41;99949.78;;;31.03;32.08
71306;BME280;59097;46.858;18.632;2022-07-29T16:58:09;99950.03;;;31.10;32.01
71306;BME280;59097;46.858;18.632;2022-07-29T17:00:38;99955.63;;;31.02;32.22
71306;BME280;59097;46.858;18.632;2022-07-29T17:03:08;99943.75;;;30.89;32.55
71306;BME280;59097;46.858;18.632;2022-07-29T17:05:39;99947.63;;;30.88;32.59
71306;BME280;59097;46.858;18.632;2022-07-29T17:08:21;99946.31;;;30.74;32.77
71306;BME280;59097;46.858;18.632;2022-07-29T17:10:49;99937.16;;;30.70;32.94
71306;BME280;59097;46.858;18.632;2022-07-29T17:13:17;99938.16;;;30.65;33.18
71306;BME280;59097;46.858;18.632;2022-07-29T17:15:46;99936.28;;;30.57;33.50
71306;BME280;59097;46.858;18.632;2022-07-29T17:18:14;99942.28;;;30.50;34.08
71306;BME280;59097;46.858;18.632;2022-07-29T17:20:42;99939.25;;;30.43;34.60
71306;BME280;59097;46.858;18.632;2022-07-29T17:23:10;99938.66;;;30.38;34.89
71306;BME280;59097;46.858;18.632;2022-07-29T17:25:39;99943.50;;;30.32;34.90
71306;BME280;59097;46.858;18.632;2022-07-29T17:28:10;99940.50;;;30.25;35.27